weather.gov     
National Weather Service

Terminal Aerodrome Forecast
NWS Homepage
This page is being discontinued on March 12, 2014.
The same data is available at this site. Please update your bookmarks.
Thank you, and we apologize for the inconvenience.
Please send an email to SR-SRH.Webmaster@noaa.gov with any concerns.


Current Version
Previous Version:    01  02  03  04  05  06  07  08  09  10  11  12  13  14  15  16  17  18  19  20  21  22  23  24  25  26  27  28  29  30  
   31  32  33  34  35  36  37  38  39  40  41  42  43  44  45  46  47  48  49  50  51  52  53  54  55  56  
[Printable]
331
FTUS41 KILN 010300 AAA
TAFLCK
TAF AMD
KLCK 010330Z 0104/0124 19005KT P6SM OVC040
     FM010600 20004KT 4SM -SNPL BR OVC020
     FM010800 20003KT 1SM -SN BR OVC008
     FM011200 14004KT 5SM BR VCSH OVC012
     FM011600 12008KT P6SM VCSH SCT020 BKN040
     FM012000 11010KT 4SM -RASN BKN020
     FM012200 11010KT 1 1/2SM RA BKN008=


U.S. Dept. of Commerce
NOAA National Weather Service
1325 East West Highway
Silver Spring, MD 20910
E-mail: w-nws.webmaster@noaa.gov
Page last modified: May 16, 2007
NATIONAL WEATHER SERVICE: for Safety, for Work, for Fun - FOR LIFE